sensor_id;sensor_type;location;lat;lon;timestamp;pressure;altitude;pressure_sealevel;temperature;humidity
59757;BME280;45631;51.962;5.974;2024-03-23T00:54:41;69145.03;;;6.74;100.00
59757;BME280;45631;51.962;5.974;2024-03-23T00:57:11;69138.66;;;6.73;100.00
59757;BME280;45631;51.962;5.974;2024-03-23T00:59:38;69139.53;;;6.72;100.00
59757;BME280;45631;51.962;5.974;2024-03-23T01:02:04;69136.34;;;6.71;100.00
59757;BME280;45631;51.962;5.974;2024-03-23T01:04:31;69133.19;;;6.71;100.00
59757;BME280;45631;51.962;5.974;2024-03-23T01:06:57;69134.88;;;6.68;100.00
59757;BME280;45631;51.962;5.974;2024-03-23T01:09:24;69128.53;;;6.67;100.00
59757;BME280;45631;51.962;5.974;2024-03-23T01:11:53;69132.56;;;6.66;100.00
59757;BME280;45631;51.962;5.974;2024-03-23T01:14:20;69126.19;;;6.65;100.00
59757;BME280;45631;51.962;5.974;2024-03-23T01:16:46;69133.13;;;6.66;100.00
59757;BME280;45631;51.962;5.974;2024-03-23T01:19:14;69130.22;;;6.64;100.00
59757;BME280;45631;51.962;5.974;2024-03-23T01:21:40;69130.22;;;6.64;100.00
59757;BME280;45631;51.962;5.974;2024-03-23T01:24:09;69121.53;;;6.60;100.00
59757;BME280;45631;51.962;5.974;2024-03-23T01:26:36;69124.13;;;6.60;100.00
59757;BME280;45631;51.962;5.974;2024-03-23T01:29:05;69120.66;;;6.57;100.00
59757;BME280;45631;51.962;5.974;2024-03-23T01:31:31;69118.00;;;6.53;100.00
59757;BME280;45631;51.962;5.974;2024-03-23T01:34:01;69107.91;;;6.51;100.00
59757;BME280;45631;51.962;5.974;2024-03-23T01:36:29;69114.84;;;6.52;100.00
59757;BME280;45631;51.962;5.974;2024-03-23T01:38:56;69106.75;;;6.50;100.00
59757;BME280;45631;51.962;5.974;2024-03-23T01:41:24;69109.88;;;6.46;100.00
59757;BME280;45631;51.962;5.974;2024-03-23T01:43:51;69105.84;;;6.47;100.00
59757;BME280;45631;51.962;5.974;2024-03-23T01:46:18;69101.19;;;6.42;100.00
59757;BME280;45631;51.962;5.974;2024-03-23T01:48:46;69103.19;;;6.42;100.00
59757;BME280;45631;51.962;5.974;2024-03-23T01:51:12;69102.63;;;6.41;100.00
59757;BME280;45631;51.962;5.974;2024-03-23T01:53:43;69101.44;;;6.40;100.00
59757;BME280;45631;51.962;5.974;2024-03-23T01:56:09;69102.63;;;6.41;100.00
59757;BME280;45631;51.962;5.974;2024-03-23T01:58:39;69099.72;;;6.39;100.00
59757;BME280;45631;51.962;5.974;2024-03-23T02:01:05;69092.22;;;6.37;100.00
59757;BME280;45631;51.962;5.974;2024-03-23T02:03:36;69094.47;;;6.34;100.00
59757;BME280;45631;51.962;5.974;2024-03-23T02:06:02;69093.88;;;6.34;100.00
59757;BME280;45631;51.962;5.974;2024-03-23T02:08:33;69094.72;;;6.32;100.00
59757;BME280;45631;51.962;5.974;2024-03-23T02:11:00;69095.34;;;6.33;100.00
59757;BME280;45631;51.962;5.974;2024-03-23T02:13:27;69093.00;;;6.31;100.00
59757;BME280;45631;51.962;5.974;2024-03-23T02:15:56;69087.81;;;6.31;100.00
59757;BME280;45631;51.962;5.974;2024-03-23T02:18:25;69085.19;;;6.26;100.00
59757;BME280;45631;51.962;5.974;2024-03-23T02:20:53;69088.91;;;6.27;100.00
59757;BME280;45631;51.962;5.974;2024-03-23T02:23:21;69082.84;;;6.24;100.00
59757;BME280;45631;51.962;5.974;2024-03-23T02:25:47;69080.25;;;6.24;100.00
59757;BME280;45631;51.962;5.974;2024-03-23T02:28:14;69082.25;;;6.23;100.00
59757;BME280;45631;51.962;5.974;2024-03-23T02:30:41;69079.69;;;6.23;100.00
59757;BME280;45631;51.962;5.974;2024-03-23T02:33:08;69076.19;;;6.20;100.00
59757;BME280;45631;51.962;5.974;2024-03-23T02:35:34;69074.13;;;6.16;100.00
59757;BME280;45631;51.962;5.974;2024-03-23T02:38:01;69075.28;;;6.17;100.00
59757;BME280;45631;51.962;5.974;2024-03-23T02:40:29;69072.97;;;6.15;100.00
59757;BME280;45631;51.962;5.974;2024-03-23T02:42:56;69072.13;;;6.17;100.00
59757;BME280;45631;51.962;5.974;2024-03-23T02:45:22;69074.97;;;6.15;100.00
59757;BME280;45631;51.962;5.974;2024-03-23T02:47:52;69075.28;;;6.17;100.00
59757;BME280;45631;51.962;5.974;2024-03-23T02:50:18;69072.97;;;6.15;100.00
59757;BME280;45631;51.962;5.974;2024-03-23T02:52:45;69068.63;;;6.14;100.00
59757;BME280;45631;51.962;5.974;2024-03-23T02:55:11;69065.13;;;6.11;100.00
59757;BME280;45631;51.962;5.974;2024-03-23T02:57:40;69063.38;;;6.09;100.00
59757;BME280;45631;51.962;5.974;2024-03-23T03:00:07;69064.22;;;6.07;100.00
59757;BME280;45631;51.962;5.974;2024-03-23T03:02:36;69063.91;;;6.05;100.00
59757;BME280;45631;51.962;5.974;2024-03-23T03:05:03;69055.81;;;6.02;100.00
59757;BME280;45631;51.962;5.974;2024-03-23T03:07:31;69058.09;;;6.00;100.00
59757;BME280;45631;51.962;5.974;2024-03-23T03:09:57;69050.59;;;5.98;100.00
59757;BME280;45631;51.962;5.974;2024-03-23T03:12:24;69050.59;;;5.98;100.00
59757;BME280;45631;51.962;5.974;2024-03-23T03:14:52;69047.09;;;5.95;100.00
59757;BME280;45631;51.962;5.974;2024-03-23T03:17:19;69047.66;;;5.95;100.00
59757;BME280;45631;51.962;5.974;2024-03-23T03:19:45;69049.94;;;5.92;100.00
59757;BME280;45631;51.962;5.974;2024-03-23T03:22:12;69038.94;;;5.87;100.00
59757;BME280;45631;51.962;5.974;2024-03-23T03:24:38;69040.63;;;5.84;100.00
59757;BME280;45631;51.962;5.974;2024-03-23T03:27:06;69036.03;;;5.85;100.00
59757;BME280;45631;51.962;5.974;2024-03-23T03:29:32;69033.72;;;5.83;100.00
59757;BME280;45631;51.962;5.974;2024-03-23T03:32:03;69042.06;;;5.83;100.00
59757;BME280;45631;51.962;5.974;2024-03-23T03:34:29;69034.25;;;5.79;100.00
59757;BME280;45631;51.962;5.974;2024-03-23T03:36:58;69031.34;;;5.76;100.00
59757;BME280;45631;51.962;5.974;2024-03-23T03:39:28;69030.16;;;5.75;100.00
59757;BME280;45631;51.962;5.974;2024-03-23T03:41:55;69020.34;;;5.71;100.00
59757;BME280;45631;51.962;5.974;2024-03-23T03:44:21;69023.78;;;5.69;100.00
59757;BME280;45631;51.962;5.974;2024-03-23T03:46:48;69020.28;;;5.66;100.00
59757;BME280;45631;51.962;5.974;2024-03-23T03:49:16;69015.97;;;5.65;100.00
59757;BME280;45631;51.962;5.974;2024-03-23T03:51:43;69015.38;;;5.64;100.00
59757;BME280;45631;51.962;5.974;2024-03-23T03:54:12;69016.53;;;5.65;100.00
59757;BME280;45631;51.962;5.974;2024-03-23T03:56:40;69009.88;;;5.62;100.00
59757;BME280;45631;51.962;5.974;2024-03-23T03:59:06;69012.47;;;5.62;100.00
59757;BME280;45631;51.962;5.974;2024-03-23T04:01:33;69014.47;;;5.61;100.00
59757;BME280;45631;51.962;5.974;2024-03-23T04:04:00;69010.41;;;5.57;100.00
59757;BME280;45631;51.962;5.974;2024-03-23T04:06:28;69007.50;;;5.55;100.00
59757;BME280;45631;51.962;5.974;2024-03-23T04:08:54;69000.84;;;5.51;100.00
59757;BME280;45631;51.962;5.974;2024-03-23T04:11:21;68998.50;;;5.49;100.00
59757;BME280;45631;51.962;5.974;2024-03-23T04:13:47;68998.19;;;5.47;100.00
59757;BME280;45631;51.962;5.974;2024-03-23T04:16:24;68991.81;;;5.41;100.00
59757;BME280;45631;51.962;5.974;2024-03-23T04:18:50;68985.41;;;5.35;100.00
59757;BME280;45631;51.962;5.974;2024-03-23T04:21:18;68976.19;;;5.32;100.00
59757;BME280;45631;51.962;5.974;2024-03-23T04:23:45;68978.19;;;5.31;100.00
59757;BME280;45631;51.962;5.974;2024-03-23T04:26:12;68982.25;;;5.35;100.00
59757;BME280;45631;51.962;5.974;2024-03-23T04:28:38;68973.84;;;5.30;100.00
59757;BME280;45631;51.962;5.974;2024-03-23T04:31:05;68970.63;;;5.24;100.00
59757;BME280;45631;51.962;5.974;2024-03-23T04:33:32;68963.66;;;5.18;100.00
59757;BME280;45631;51.962;5.974;2024-03-23T04:35:59;68964.19;;;5.14;100.00
59757;BME280;45631;51.962;5.974;2024-03-23T04:38:25;68956.69;;;5.12;100.00
59757;BME280;45631;51.962;5.974;2024-03-23T04:40:57;68955.22;;;5.08;100.00
59757;BME280;45631;51.962;5.974;2024-03-23T04:43:25;68953.72;;;5.05;100.00
59757;BME280;45631;51.962;5.974;2024-03-23T04:45:52;68948.56;;;5.05;100.00
59757;BME280;45631;51.962;5.974;2024-03-23T04:48:20;68944.16;;;4.99;100.00
59757;BME280;45631;51.962;5.974;2024-03-23T04:50:48;68934.63;;;4.93;100.00
59757;BME280;45631;51.962;5.974;2024-03-23T04:53:15;68928.81;;;4.87;100.00
59757;BME280;45631;51.962;5.974;2024-03-23T04:55:43;68925.06;;;4.86;100.00
59757;BME280;45631;51.962;5.974;2024-03-23T04:58:10;68925.56;;;4.82;100.00
59757;BME280;45631;51.962;5.974;2024-03-23T05:00:38;68920.09;;;4.80;100.00
59757;BME280;45631;51.962;5.974;2024-03-23T05:03:04;68914.28;;;4.74;100.00
59757;BME280;45631;51.962;5.974;2024-03-23T05:05:31;68911.09;;;4.74;100.00
59757;BME280;45631;51.962;5.974;2024-03-23T05:07:57;68905.91;;;4.69;100.00
59757;BME280;45631;51.962;5.974;2024-03-23T05:10:25;68900.66;;;4.65;100.00
59757;BME280;45631;51.962;5.974;2024-03-23T05:12:51;68900.09;;;4.64;100.00
59757;BME280;45631;51.962;5.974;2024-03-23T05:15:20;68900.59;;;4.60;100.00
59757;BME280;45631;51.962;5.974;2024-03-23T05:17:46;68896.81;;;4.54;100.00
59757;BME280;45631;51.962;5.974;2024-03-23T05:20:13;68887.00;;;4.50;100.00
59757;BME280;45631;51.962;5.974;2024-03-23T05:22:39;68888.97;;;4.50;100.00
59757;BME280;45631;51.962;5.974;2024-03-23T05:25:07;68888.97;;;4.50;100.00
59757;BME280;45631;51.962;5.974;2024-03-23T05:27:33;68881.19;;;4.45;100.00
59757;BME280;45631;51.962;5.974;2024-03-23T05:30:00;68882.03;;;4.44;100.00
59757;BME280;45631;51.962;5.974;2024-03-23T05:32:28;68879.69;;;4.42;100.00
59757;BME280;45631;51.962;5.974;2024-03-23T05:34:55;68873.06;;;4.38;100.00
59757;BME280;45631;51.962;5.974;2024-03-23T05:37:22;68876.78;;;4.39;100.00
59757;BME280;45631;51.962;5.974;2024-03-23T05:39:49;68873.06;;;4.38;100.00
59757;BME280;45631;51.962;5.974;2024-03-23T05:42:16;68874.19;;;4.39;100.00
59757;BME280;45631;51.962;5.974;2024-03-23T05:44:44;68874.47;;;4.37;100.00
59757;BME280;45631;51.962;5.974;2024-03-23T05:47:11;68871.88;;;4.37;100.00
59757;BME280;45631;51.962;5.974;2024-03-23T05:49:41;68873.31;;;4.36;100.00
59757;BME280;45631;51.962;5.974;2024-03-23T05:52:08;68864.66;;;4.33;100.00
59757;BME280;45631;51.962;5.974;2024-03-23T05:54:38;68871.00;;;4.34;100.00
59757;BME280;45631;51.962;5.974;2024-03-23T05:57:05;68866.66;;;4.32;100.00
59757;BME280;45631;51.962;5.974;2024-03-23T05:59:33;68867.50;;;4.31;100.00
59757;BME280;45631;51.962;5.974;2024-03-23T06:01:59;68872.41;;;4.33;100.00
59757;BME280;45631;51.962;5.974;2024-03-23T06:04:26;68861.19;;;4.30;100.00
59757;BME280;45631;51.962;5.974;2024-03-23T06:06:54;68864.59;;;4.28;100.00
59757;BME280;45631;51.962;5.974;2024-03-23T06:09:21;68862.59;;;4.29;100.00
59757;BME280;45631;51.962;5.974;2024-03-23T06:11:49;68857.97;;;4.25;100.00
59757;BME280;45631;51.962;5.974;2024-03-23T06:14:16;68857.97;;;4.25;100.00
59757;BME280;45631;51.962;5.974;2024-03-23T06:16:42;68861.72;;;4.26;100.00
59757;BME280;45631;51.962;5.974;2024-03-23T06:19:09;68862.03;;;4.28;100.00
59757;BME280;45631;51.962;5.974;2024-03-23T06:21:43;68869.78;;;4.28;100.00
59757;BME280;45631;51.962;5.974;2024-03-23T06:24:12;68864.59;;;4.28;100.00
59757;BME280;45631;51.962;5.974;2024-03-23T06:26:38;68864.09;;;4.32;100.00
59757;BME280;45631;51.962;5.974;2024-03-23T06:29:06;68869.25;;;4.32;100.00
59757;BME280;45631;51.962;5.974;2024-03-23T06:31:32;68870.41;;;4.33;100.00
59757;BME280;45631;51.962;5.974;2024-03-23T06:33:59;68868.97;;;4.34;100.00
59757;BME280;45631;51.962;5.974;2024-03-23T06:36:25;68866.97;;;4.35;100.00
59757;BME280;45631;51.962;5.974;2024-03-23T06:38:52;68877.94;;;4.40;100.00
59757;BME280;45631;51.962;5.974;2024-03-23T06:41:20;68885.81;;;4.49;100.00
59757;BME280;45631;51.962;5.974;2024-03-23T06:43:47;68891.63;;;4.54;100.00
59757;BME280;45631;51.962;5.974;2024-03-23T06:46:13;68897.44;;;4.60;100.00
59757;BME280;45631;51.962;5.974;2024-03-23T06:48:40;68903.25;;;4.65;100.00
59757;BME280;45631;51.962;5.974;2024-03-23T06:51:07;68905.56;;;4.67;100.00
59757;BME280;45631;51.962;5.974;2024-03-23T06:53:34;68912.22;;;4.70;100.00
59757;BME280;45631;51.962;5.974;2024-03-23T06:56:01;68916.59;;;4.77;100.00
59757;BME280;45631;51.962;5.974;2024-03-23T06:58:29;68928.22;;;4.87;100.00
59757;BME280;45631;51.962;5.974;2024-03-23T07:00:55;68935.78;;;4.94;100.00
59757;BME280;45631;51.962;5.974;2024-03-23T07:03:22;68941.56;;;4.99;100.00
59757;BME280;45631;51.962;5.974;2024-03-23T07:05:49;68942.22;;;5.04;100.00
59757;BME280;45631;51.962;5.974;2024-03-23T07:08:16;68958.41;;;5.14;100.00
59757;BME280;45631;51.962;5.974;2024-03-23T07:10:49;68971.47;;;5.23;100.00
59757;BME280;45631;51.962;5.974;2024-03-23T07:13:16;68984.84;;;5.35;100.00
59757;BME280;45631;51.962;5.974;2024-03-23T07:15:51;68996.47;;;5.45;100.00
59757;BME280;45631;51.962;5.974;2024-03-23T07:18:18;69000.31;;;5.55;100.00
59757;BME280;45631;51.962;5.974;2024-03-23T07:20:52;69009.31;;;5.61;100.00
59757;BME280;45631;51.962;5.974;2024-03-23T07:23:19;69024.09;;;5.72;100.00
59757;BME280;45631;51.962;5.974;2024-03-23T07:25:56;69030.22;;;5.80;100.00
59757;BME280;45631;51.962;5.974;2024-03-23T07:28:23;69037.19;;;5.86;100.00
59757;BME280;45631;51.962;5.974;2024-03-23T07:31:04;69048.53;;;5.93;100.00
59757;BME280;45631;51.962;5.974;2024-03-23T07:33:32;69065.97;;;6.09;100.00
59757;BME280;45631;51.962;5.974;2024-03-23T07:35:58;69077.28;;;6.17;100.00
59757;BME280;45631;51.962;5.974;2024-03-23T07:38:26;69089.50;;;6.28;100.00
59757;BME280;45631;51.962;5.974;2024-03-23T07:41:02;69093.63;;;6.36;100.00
59757;BME280;45631;51.962;5.974;2024-03-23T07:43:29;69102.03;;;6.41;100.00
59757;BME280;45631;51.962;5.974;2024-03-23T07:45:55;69117.16;;;6.54;100.00
59757;BME280;45631;51.962;5.974;2024-03-23T07:48:24;69136.34;;;6.71;100.00
59757;BME280;45631;51.962;5.974;2024-03-23T07:50:58;69141.00;;;6.75;100.00
59757;BME280;45631;51.962;5.974;2024-03-23T07:53:25;69150.06;;;6.86;100.00
59757;BME280;45631;51.962;5.974;2024-03-23T07:55:56;69166.91;;;7.01;100.00
59757;BME280;45631;51.962;5.974;2024-03-23T07:58:23;69180.91;;;7.13;100.00
59757;BME280;45631;51.962;5.974;2024-03-23T08:00:50;69194.88;;;7.25;100.00
59757;BME280;45631;51.962;5.974;2024-03-23T08:03:17;69209.94;;;7.34;100.00
59757;BME280;45631;51.962;5.974;2024-03-23T08:05:44;69216.97;;;7.45;100.00
59757;BME280;45631;51.962;5.974;2024-03-23T08:08:12;69238.75;;;7.57;100.00
59757;BME280;45631;51.962;5.974;2024-03-23T08:10:47;69243.19;;;7.68;100.00
59757;BME280;45631;51.962;5.974;2024-03-23T08:13:14;69251.31;;;7.75;100.00
59757;BME280;45631;51.962;5.974;2024-03-23T08:15:43;69269.63;;;7.89;100.00
59757;BME280;45631;51.962;5.974;2024-03-23T08:18:12;69278.66;;;7.95;100.00
59757;BME280;45631;51.962;5.974;2024-03-23T08:20:38;69274.03;;;7.95;100.00
59757;BME280;45631;51.962;5.974;2024-03-23T08:23:07;69272.88;;;7.94;100.00
59757;BME280;45631;51.962;5.974;2024-03-23T08:25:33;69275.19;;;7.97;100.00
59757;BME280;45631;51.962;5.974;2024-03-23T08:28:01;69276.94;;;7.98;100.00
59757;BME280;45631;51.962;5.974;2024-03-23T08:30:28;69283.88;;;8.00;100.00
59757;BME280;45631;51.962;5.974;2024-03-23T08:32:55;69284.78;;;8.03;100.00
59757;BME280;45631;51.962;5.974;2024-03-23T08:35:21;69276.06;;;7.95;100.00
59757;BME280;45631;51.962;5.974;2024-03-23T08:37:48;69268.81;;;7.91;100.00
59757;BME280;45631;51.962;5.974;2024-03-23T08:40:16;69275.19;;;7.97;100.00
59757;BME280;45631;51.962;5.974;2024-03-23T08:42:43;69282.47;;;8.01;100.00
59757;BME280;45631;51.962;5.974;2024-03-23T08:45:09;69286.53;;;8.04;100.00
59757;BME280;45631;51.962;5.974;2024-03-23T08:47:36;69298.75;;;8.15;100.00
59757;BME280;45631;51.962;5.974;2024-03-23T08:50:06;69308.94;;;8.22;100.00
59757;BME280;45631;51.962;5.974;2024-03-23T08:52:33;69321.47;;;8.35;100.00
59757;BME280;45631;51.962;5.974;2024-03-23T08:54:59;69333.72;;;8.46;100.00
59757;BME280;45631;51.962;5.974;2024-03-23T08:57:28;69359.94;;;8.69;100.00
59757;BME280;45631;51.962;5.974;2024-03-23T08:59:54;69388.22;;;8.92;100.00
59757;BME280;45631;51.962;5.974;2024-03-23T09:02:21;69410.66;;;9.14;100.00
59757;BME280;45631;51.962;5.974;2024-03-23T09:04:47;69451.19;;;9.52;100.00
59757;BME280;45631;51.962;5.974;2024-03-23T09:07:17;69477.75;;;9.78;100.00
59757;BME280;45631;51.962;5.974;2024-03-23T09:09:43;69483.59;;;9.83;100.00
59757;BME280;45631;51.962;5.974;2024-03-23T09:12:12;69454.66;;;9.51;100.00
59757;BME280;45631;51.962;5.974;2024-03-23T09:14:40;69423.47;;;9.25;100.00
59757;BME280;45631;51.962;5.974;2024-03-23T09:17:07;69399.59;;;9.04;100.00
59757;BME280;45631;51.962;5.974;2024-03-23T09:19:34;69364.63;;;8.73;100.00
59757;BME280;45631;51.962;5.974;2024-03-23T09:22:04;69335.22;;;8.50;100.00
59757;BME280;45631;51.962;5.974;2024-03-23T09:24:30;69302.84;;;8.19;100.00
59757;BME280;45631;51.962;5.974;2024-03-23T09:26:57;69270.81;;;7.90;100.00
59757;BME280;45631;51.962;5.974;2024-03-23T09:29:23;69282.16;;;7.98;100.00
59757;BME280;45631;51.962;5.974;2024-03-23T09:31:52;69253.66;;;7.77;100.00
59757;BME280;45631;51.962;5.974;2024-03-23T09:34:18;69284.75;;;7.98;100.00
59757;BME280;45631;51.962;5.974;2024-03-23T09:36:46;69300.81;;;8.19;100.00
59757;BME280;45631;51.962;5.974;2024-03-23T09:39:13;69333.16;;;8.45;100.00
59757;BME280;45631;51.962;5.974;2024-03-23T09:41:44;69368.97;;;8.75;100.00
59757;BME280;45631;51.962;5.974;2024-03-23T09:44:10;69384.16;;;8.93;100.00
59757;BME280;45631;51.962;5.974;2024-03-23T09:46:38;69401.06;;;9.08;100.00
59757;BME280;45631;51.962;5.974;2024-03-23T09:49:07;69431.91;;;9.30;100.00
59757;BME280;45631;51.962;5.974;2024-03-23T09:51:36;69440.69;;;9.43;100.00
59757;BME280;45631;51.962;5.974;2024-03-23T09:54:02;69442.13;;;9.42;100.00
59757;BME280;45631;51.962;5.974;2024-03-23T09:56:29;69422.34;;;9.24;100.00
59757;BME280;45631;51.962;5.974;2024-03-23T09:59:02;69444.78;;;9.46;100.00
59757;BME280;45631;51.962;5.974;2024-03-23T10:01:30;69466.06;;;9.63;100.00
59757;BME280;45631;51.962;5.974;2024-03-23T10:03:56;69489.63;;;9.81;100.00
59757;BME280;45631;51.962;5.974;2024-03-23T10:06:24;69504.84;;;10.00;100.00
59757;BME280;45631;51.962;5.974;2024-03-23T10:08:51;69527.00;;;10.19;100.00
59757;BME280;45631;51.962;5.974;2024-03-23T10:11:20;69547.75;;;10.40;100.00
59757;BME280;45631;51.962;5.974;2024-03-23T10:13:47;69584.78;;;10.65;100.00
59757;BME280;45631;51.962;5.974;2024-03-23T10:16:21;69581.28;;;10.67;100.00
59757;BME280;45631;51.962;5.974;2024-03-23T10:18:48;69601.72;;;10.85;100.00
59757;BME280;45631;51.962;5.974;2024-03-23T10:21:16;69612.53;;;10.92;100.00
59757;BME280;45631;51.962;5.974;2024-03-23T10:23:45;69627.16;;;11.10;100.00
59757;BME280;45631;51.962;5.974;2024-03-23T10:26:22;69611.34;;;10.91;100.00
59757;BME280;45631;51.962;5.974;2024-03-23T10:28:53;69608.72;;;10.91;100.00
59757;BME280;45631;51.962;5.974;2024-03-23T10:31:21;69624.50;;;11.05;100.00
59757;BME280;45631;51.962;5.974;2024-03-23T10:33:47;69644.66;;;11.25;100.00
59757;BME280;45631;51.962;5.974;2024-03-23T10:36:14;69655.72;;;11.30;100.00
59757;BME280;45631;51.962;5.974;2024-03-23T10:38:41;69604.94;;;10.86;100.00
59757;BME280;45631;51.962;5.974;2024-03-23T10:41:10;69557.66;;;10.44;100.00
59757;BME280;45631;51.962;5.974;2024-03-23T10:43:37;69480.03;;;9.75;100.00
59757;BME280;45631;51.962;5.974;2024-03-23T10:46:04;69457.84;;;9.51;100.00
59757;BME280;45631;51.962;5.974;2024-03-23T10:48:32;69447.41;;;9.46;100.00
59757;BME280;45631;51.962;5.974;2024-03-23T10:50:59;69468.13;;;9.72;100.00
59757;BME280;45631;51.962;5.974;2024-03-23T10:53:26;69496.97;;;9.90;100.00
59757;BME280;45631;51.962;5.974;2024-03-23T10:55:57;69544.53;;;10.35;100.00
59757;BME280;45631;51.962;5.974;2024-03-23T10:58:27;69559.13;;;10.47;100.00
59757;BME280;45631;51.962;5.974;2024-03-23T11:00:55;69585.38;;;10.71;100.00
59757;BME280;45631;51.962;5.974;2024-03-23T11:03:35;69627.97;;;11.04;100.00
59757;BME280;45631;51.962;5.974;2024-03-23T11:06:04;69652.50;;;11.30;100.00
59757;BME280;45631;51.962;5.974;2024-03-23T11:08:35;69665.34;;;11.37;100.00
59757;BME280;45631;51.962;5.974;2024-03-23T11:11:13;69705.66;;;11.77;100.00
59757;BME280;45631;51.962;5.974;2024-03-23T11:13:40;69707.44;;;11.83;100.00
59757;BME280;45631;51.962;5.974;2024-03-23T11:16:21;69736.06;;;12.04;100.00
59757;BME280;45631;51.962;5.974;2024-03-23T11:18:47;69713.81;;;11.79;100.00
59757;BME280;45631;51.962;5.974;2024-03-23T11:24:14;69686.97;;;11.60;100.00
59757;BME280;45631;51.962;5.974;2024-03-23T11:26:41;69703.94;;;11.80;100.00
59757;BME280;45631;51.962;5.974;2024-03-23T11:29:13;69742.78;;;12.12;93.84
59757;BME280;45631;51.962;5.974;2024-03-23T11:31:46;69751.25;;;12.17;96.24
59757;BME280;45631;51.962;5.974;2024-03-23T11:34:12;69804.13;;;12.61;94.02
59757;BME280;45631;51.962;5.974;2024-03-23T11:36:39;69831.31;;;12.88;96.81
59757;BME280;45631;51.962;5.974;2024-03-23T11:39:12;69880.47;;;13.35;97.55
59757;BME280;45631;51.962;5.974;2024-03-23T11:41:48;69856.19;;;13.12;79.93
59757;BME280;45631;51.962;5.974;2024-03-23T11:44:17;69825.78;;;12.85;79.05
59757;BME280;45631;51.962;5.974;2024-03-23T11:46:44;69851.78;;;13.06;85.08
59757;BME280;45631;51.962;5.974;2024-03-23T11:49:21;69891.28;;;13.43;95.89
59757;BME280;45631;51.962;5.974;2024-03-23T11:51:49;69857.06;;;13.10;99.98
59757;BME280;45631;51.962;5.974;2024-03-23T11:54:15;69812.03;;;12.71;91.53
59757;BME280;45631;51.962;5.974;2024-03-23T11:56:56;69797.13;;;12.55;95.82
59757;BME280;45631;51.962;5.974;2024-03-23T11:59:37;69782.22;;;12.44;96.76
59757;BME280;45631;51.962;5.974;2024-03-23T12:02:08;69813.19;;;12.72;93.66
59757;BME280;45631;51.962;5.974;2024-03-23T12:04:36;69774.66;;;12.42;85.72
59757;BME280;45631;51.962;5.974;2024-03-23T12:07:11;69756.22;;;12.19;91.32
59757;BME280;45631;51.962;5.974;2024-03-23T12:09:37;69731.38;;;11.99;92.03
59757;BME280;45631;51.962;5.974;2024-03-23T12:12:10;69717.03;;;11.84;87.25
59757;BME280;45631;51.962;5.974;2024-03-23T12:14:38;69714.47;;;11.89;87.81
59757;BME280;45631;51.962;5.974;2024-03-23T12:17:09;69704.75;;;11.74;88.09
59757;BME280;45631;51.962;5.974;2024-03-23T12:19:36;69681.72;;;11.56;94.91
59757;BME280;45631;51.962;5.974;2024-03-23T12:22:03;69670.31;;;11.43;94.58
59757;BME280;45631;51.962;5.974;2024-03-23T12:24:29;69655.72;;;11.30;96.41
59757;BME280;45631;51.962;5.974;2024-03-23T12:27:00;69626.56;;;11.09;95.68
59757;BME280;45631;51.962;5.974;2024-03-23T12:29:29;69635.88;;;11.13;100.00
59757;BME280;45631;51.962;5.974;2024-03-23T12:32:01;69639.97;;;11.21;100.00
59757;BME280;45631;51.962;5.974;2024-03-23T12:34:27;69672.06;;;11.45;100.00
59757;BME280;45631;51.962;5.974;2024-03-23T12:36:58;69657.22;;;11.39;98.71
59757;BME280;45631;51.962;5.974;2024-03-23T12:39:25;69674.09;;;11.44;99.04
59757;BME280;45631;51.962;5.974;2024-03-23T12:41:52;69708.28;;;11.77;100.00
59757;BME280;45631;51.962;5.974;2024-03-23T12:44:19;69741.91;;;12.09;100.00
59757;BME280;45631;51.962;5.974;2024-03-23T12:46:46;69780.19;;;12.45;99.12
59757;BME280;45631;51.962;5.974;2024-03-23T12:49:14;69821.69;;;12.81;92.90
59757;BME280;45631;51.962;5.974;2024-03-23T12:51:48;69852.38;;;13.06;86.10
59757;BME280;45631;51.962;5.974;2024-03-23T12:54:14;69888.66;;;13.43;85.61
59757;BME280;45631;51.962;5.974;2024-03-23T12:56:41;69896.25;;;13.45;70.55
59757;BME280;45631;51.962;5.974;2024-03-23T12:59:07;69846.84;;;13.04;69.53
59757;BME280;45631;51.962;5.974;2024-03-23T13:01:34;69835.44;;;12.91;71.51
59757;BME280;45631;51.962;5.974;2024-03-23T13:04:00;69865.84;;;13.23;76.89
59757;BME280;45631;51.962;5.974;2024-03-23T13:06:29;69882.19;;;13.32;74.07
59757;BME280;45631;51.962;5.974;2024-03-23T13:08:59;69889.22;;;13.39;73.52
59757;BME280;45631;51.962;5.974;2024-03-23T13:11:27;69918.50;;;13.69;71.27
59757;BME280;45631;51.962;5.974;2024-03-23T13:13:53;69958.56;;;14.02;71.38
59757;BME280;45631;51.962;5.974;2024-03-23T13:16:20;70000.69;;;14.39;70.09
59757;BME280;45631;51.962;5.974;2024-03-23T13:18:46;70030.84;;;14.63;57.64
59757;BME280;45631;51.962;5.974;2024-03-23T13:21:13;70026.16;;;14.59;56.33
59757;BME280;45631;51.962;5.974;2024-03-23T13:23:41;70015.03;;;14.49;58.79
59757;BME280;45631;51.962;5.974;2024-03-23T13:26:09;70022.66;;;14.56;59.51
59757;BME280;45631;51.962;5.974;2024-03-23T13:28:35;70035.22;;;14.65;59.41
59757;BME280;45631;51.962;5.974;2024-03-23T13:31:03;69987.22;;;14.23;56.44
59757;BME280;45631;51.962;5.974;2024-03-23T13:33:43;69960.59;;;14.01;60.86
59757;BME280;45631;51.962;5.974;2024-03-23T13:36:10;69889.22;;;13.39;88.98
59757;BME280;45631;51.962;5.974;2024-03-23T13:38:36;69830.75;;;12.87;94.01
59757;BME280;45631;51.962;5.974;2024-03-23T13:41:05;69792.16;;;12.53;90.27
59757;BME280;45631;51.962;5.974;2024-03-23T13:43:32;69801.78;;;12.59;96.96
59757;BME280;45631;51.962;5.974;2024-03-23T13:45:59;69786.59;;;12.46;90.60
59757;BME280;45631;51.962;5.974;2024-03-23T13:48:27;69783.66;;;12.43;86.53
59757;BME280;45631;51.962;5.974;2024-03-23T13:50:58;69768.50;;;12.34;82.32
59757;BME280;45631;51.962;5.974;2024-03-23T13:53:25;69796.84;;;12.57;85.71
59757;BME280;45631;51.962;5.974;2024-03-23T13:55:51;69835.13;;;12.93;91.70
59757;BME280;45631;51.962;5.974;2024-03-23T13:58:20;69864.66;;;13.22;95.97
59757;BME280;45631;51.962;5.974;2024-03-23T14:00:46;69876.03;;;13.20;89.64